x

Sentry Shoal (46131) Wave Buoy

8:00am - Sun 25th Sep 2016 All times are PDT. -7 hours from GMT.

  • Sig Wave height 2.0ft
  • Peak Period 3s
  • Wind
    13mph, 16mph gusts
  • Sea Temp 58°f
  • 空気 Temp 56°f
  • Sea Pressure 1029.5mb
  • Sentry Shoal
  • Sentry Shoal

More Historic Weather Station data

Upgrade to MSW Pro to gain access to the past 30 days of data for over 8000 Wavebouys and Weather Stations around the globe.

Join Pro

Comparision Forecast

View Surf forecast
   
Sun 09/25 8:00am 2ft 3s 13 16 mph 1029.5mb 58f 56f
7:00am 2ft 3s 13 18 mph 1029.1mb 58f 56f
6:00am 2.5ft 4s 16 20 mph 1028.8mb 58f 56f
5:00am 2.5ft 4s 18 22 mph 1028.3mb 57f 56f
4:00am 2.5ft 4s 18 22 mph 1028.3mb 57f 56f
3:00am 2.5ft 4s 20 25 mph 1028mb 57f 56f
2:00am 2.5ft 3s 18 22 mph 1028.2mb 57f 56f
1:00am 2.5ft 3s 18 22 mph 1028.5mb 58f 56f
12:00am 2.5ft 4s 20 22 mph 1028.5mb 58f 56f
Sat 09/24 11:00pm 2.5ft 3s 18 22 mph 1028.3mb 58f 56f
10:00pm 2.5ft 4s 20 22 mph 1028.2mb 58f 56f
9:00pm 2.5ft 4s 18 22 mph 1028.1mb 58f 56f
8:00pm 2.5ft 4s 18 20 mph 1028mb 58f 56f
7:00pm 2ft 3s 13 16 mph 1027.6mb 58f 56f
6:00pm 1.6ft 3s 16 18 mph 1026.9mb 58f 57f
5:00pm 1.3ft 2s 18 20 mph 1026.7mb 58f 57f
4:00pm 1ft 2s 11 16 mph 1027.4mb 59f 56f
3:00pm 0.3ft 2s 13
mph
1027.2mb 59f 55f
2:00pm 0.3ft 2s 11 13 mph 1027.4mb 59f 55f
1:00pm 0.3ft 2s 4 7 mph 1028.3mb 59f 55f
12:00pm 0.3ft 2s 2 4 mph 1028.7mb 59f 53f
11:00am 0.3ft 2s 2 4 mph 1028.6mb 59f 53f
10:00am 0.3ft 2s  -  2 mph 1028.9mb 58f 52f
9:00am 0.3ft 3s 4 7 mph 1028.6mb 58f 51f
8:00am 0.3ft 2s 4 7 mph 1027.2mb 58f 51f
7:00am 0.3ft 2s 7 9 mph 1026.5mb 58f 51f
6:00am 0.3ft 2s 9
mph
1026.3mb 58f 51f
5:00am 0.3ft 3s 4 9 mph 1025.9mb 58f 52f
4:00am 0.3ft 2s 7 9 mph 1025.2mb 58f 52f
3:00am 0.3ft 2s 7 9 mph 1025mb 58f 51f
2:00am 0.3ft 2s 4 9 mph 1024.5mb 58f 51f
1:00am 0.3ft 3s 4 7 mph 1023.9mb 58f 52f
12:00am 0.3ft 3s 9
mph
1023.3mb 58f 53f
Fri 09/23 11:00pm 0.3ft 3s 4 7 mph 1022.2mb 58f 54f
10:00pm 0.3ft 3s 7 9 mph 1021.9mb 58f 54f
9:00pm 0.7ft 4s 2 4 mph 1021.3mb 58f 54f
8:00pm 1ft 4s 4
mph
1020.1mb 58f 55f
7:00pm 1ft 4s 2 4 mph 1019mb 58f 55f
6:00pm 1ft 4s 4
mph
1018.6mb 58f 55f
5:00pm 1.3ft 5s 9
mph
1017.7mb 58f 54f
4:00pm 1.3ft 5s 7
mph
1017mb 58f 54f
3:00pm 1.3ft 3s 13
mph
1016.1mb 58f 53f
2:00pm 1.6ft 3s 4 7 mph 1015.8mb 58f 53f
1:00pm 2ft 3s 13 18 mph 1014.4mb 58f 53f
12:00pm 2.5ft 4s 16 20 mph 1014mb 58f 53f
11:00am 2.5ft 4s 18 22 mph 1013.8mb 57f 52f
10:00am 3.5ft 4s 20 22 mph 1013.6mb 57f 52f
8:00am 3ft 4s 20 25 mph 1013.7mb 57f 54f
7:00am 2.5ft 4s 22 25 mph 1013.6mb 57f 56f
6:00am 2.5ft 4s 20 27 mph 1013.7mb 57f 57f
5:00am 2.5ft 4s 16 20 mph 1014mb 57f 56f
4:00am 2ft 4s 13 18 mph 1014.2mb 57f 56f
3:00am 2ft 4s 16 18 mph 1015.4mb 57f 56f
2:00am 2.5ft 4s 16 22 mph 1014.8mb 57f 59f
1:00am 2.5ft 4s 16 20 mph 1014mb 57f 60f
12:00am 3ft 4s 13 16 mph 1013.6mb 57f 60f
Thu 09/22 11:00pm 3ft 4s 20 25 mph 1013.1mb 58f 60f
10:00pm 2.5ft 4s 18 22 mph 1013mb 58f 60f
9:00pm 2.5ft 4s 18 22 mph 1013.3mb 58f 60f
8:00pm 2ft 3s 13 20 mph 1013.8mb 58f 60f
7:00pm 1.6ft 3s 16 18 mph 1013.5mb 58f 59f
6:00pm 0.7ft 2s 16 18 mph 1013.9mb 59f 60f
5:00pm  -  3s 9 13 mph 1014.5mb 60f 59f
4:00pm 0.3ft 2s 7 9 mph 1014.8mb 59f 59f
3:00pm 0.3ft 3s 4
mph
1015.3mb 59f 58f
2:00pm 0.3ft 6s 4 7 mph 1015.6mb 59f 57f
1:00pm 0.3ft 4s 4 7 mph 1016.1mb 60f 56f
12:00pm 0.3ft 2s  -  2 mph 1016.4mb 59f 56f
11:00am 0.3ft 2s 4
mph
1016.3mb 58f 54f
10:00am 0.3ft 2s 7 9 mph 1016.3mb 58f 53f
9:00am 0.7ft 2s 7 9 mph 1016.2mb 57f 52f
8:00am 0.7ft 2s 9 11 mph 1016.2mb 57f 51f
7:00am 1ft 3s 11 13 mph 1015.9mb 57f 52f
6:00am 1ft 3s 13 16 mph 1015.7mb 57f 52f
5:00am 1.3ft 3s 11 13 mph 1015.7mb 57f 52f
4:00am 1.6ft 3s 13 18 mph 1015.5mb 57f 53f
3:00am 1.3ft 3s 16 20 mph 1015.4mb 57f 54f
2:00am 1ft 3s 18 20 mph 1015.1mb 57f 55f
1:00am 1.3ft 3s 16 18 mph 1015.2mb 58f 56f
12:00am 1.3ft 2s 16 18 mph 1014.9mb 58f 57f
Wed 09/21 11:00pm 1ft 2s 16 18 mph 1015mb 59f 58f
10:00pm 0.7ft 2s 11 13 mph 1015.1mb 59f 59f
9:00pm 0.3ft 7s 11 13 mph 1015.1mb 60f 60f
8:00pm 0.3ft 2s 9
mph
1015.1mb 60f 61f
7:00pm 0.3ft 3s 9
mph
1015.3mb 60f 63f
6:00pm 0.3ft 2s 7 9 mph 1015.7mb 60f 64f
5:00pm 0.3ft 2s 2 4 mph 1016.4mb 59f 62f